Time;durP1;ratioP1;P1;durP2;ratioP2;P2;SDS_P1;SDS_P2;PMS_P1;PMS_P2;Temp;Humidity;BMP_temperature;BMP_pressure;BME280_temperature;BME280_humidity;BME280_pressure;Samples;Min_cycle;Max_cycle;Signal;HPM_P1;HPM_P2
2024/01/10 00:00:03;;;;;;;148.00;50.00;;;;;;;-15.76;67.22;100696.11;137242;1275;22906;-82
2024/01/10 00:03:06;;;;;;;122.90;37.40;;;;;;;-15.81;66.40;100700.85;137194;1275;22461;-82
2024/01/10 00:06:09;;;;;;;114.80;38.70;;;;;;;-15.86;66.39;100705.95;137278;1275;22908;-82
2024/01/10 00:09:11;;;;;;;122.80;38.50;;;;;;;-15.84;66.66;100708.89;137229;1275;22326;-80
2024/01/10 00:12:13;;;;;;;112.30;35.90;;;;;;;-15.83;67.10;100706.16;137281;1275;22387;-82
2024/01/10 00:15:16;;;;;;;94.00;30.60;;;;;;;-15.87;66.97;100705.32;137350;1275;22190;-82
2024/01/10 00:18:18;;;;;;;102.90;32.40;;;;;;;-15.91;66.97;100703.84;137328;1275;22381;-83
2024/01/10 00:21:21;;;;;;;114.60;38.10;;;;;;;-15.91;66.55;100712.89;137300;1274;22583;-82
2024/01/10 00:24:23;;;;;;;89.60;27.40;;;;;;;-15.90;66.81;100713.61;137316;1275;22228;-80
2024/01/10 00:27:26;;;;;;;103.60;34.00;;;;;;;-15.92;67.49;100710.58;137377;1274;22626;-83
2024/01/10 00:30:28;;;;;;;138.40;42.60;;;;;;;-15.92;67.18;100713.35;137275;1274;22251;-82
2024/01/10 00:33:30;;;;;;;101.50;32.20;;;;;;;-15.90;66.67;100706.84;137200;1274;22615;-82
2024/01/10 00:36:33;;;;;;;116.60;32.80;;;;;;;-15.96;66.59;100703.92;137310;1274;22240;-83
2024/01/10 00:39:35;;;;;;;92.60;31.50;;;;;;;-15.97;67.09;100703.97;137277;1274;22766;-82
2024/01/10 00:42:38;;;;;;;102.00;32.20;;;;;;;-15.98;67.09;100702.74;137287;1274;22257;-82
2024/01/10 00:45:40;;;;;;;131.20;43.70;;;;;;;-15.99;67.03;100701.39;137219;1269;22416;-83
2024/01/10 00:48:43;;;;;;;122.90;37.70;;;;;;;-16.01;66.66;100705.72;137231;1274;21882;-82
2024/01/10 00:51:45;;;;;;;135.90;51.30;;;;;;;-16.09;66.23;100704.85;137282;1274;22139;-82
2024/01/10 00:54:47;;;;;;;115.80;37.50;;;;;;;-16.17;66.58;100701.95;137275;1274;22882;-83
2024/01/10 00:57:50;;;;;;;138.10;42.40;;;;;;;-16.20;67.07;100701.91;137279;1274;22442;-82
2024/01/10 01:00:52;;;;;;;93.30;31.70;;;;;;;-16.23;66.54;100700.33;137323;1275;22236;-82
2024/01/10 01:03:55;;;;;;;106.70;34.40;;;;;;;-16.27;66.36;100697.81;137333;1274;22458;-82
2024/01/10 01:06:57;;;;;;;95.10;33.50;;;;;;;-16.31;66.47;100691.50;137282;1275;22351;-82
2024/01/10 01:10:00;;;;;;;102.20;33.10;;;;;;;-16.28;67.17;100684.67;137351;1274;22869;-82
2024/01/10 01:13:02;;;;;;;100.30;30.40;;;;;;;-16.22;67.61;100678.98;137322;1251;22679;-81
2024/01/10 01:16:05;;;;;;;96.90;33.60;;;;;;;-16.15;67.25;100683.33;137059;1275;22611;-82
2024/01/10 01:20:04;;;;;;;89.90;30.60;;;;;;;-16.08;66.93;100673.23;132602;1305;544785;-83
2024/01/10 01:23:06;;;;;;;128.30;38.80;;;;;;;-16.11;67.53;100670.39;135701;1288;22654;-83
2024/01/10 01:26:09;;;;;;;112.00;35.10;;;;;;;-16.13;66.64;100677.04;136046;1288;22757;-85
2024/01/10 01:29:11;;;;;;;107.50;34.60;;;;;;;-16.20;66.40;100672.58;136004;1288;22332;-83
2024/01/10 01:32:14;;;;;;;131.20;39.70;;;;;;;-16.22;67.25;100665.31;135559;1285;180363;-82
2024/01/10 01:35:21;;;;;;;135.90;42.60;;;;;;;-16.22;66.56;100668.05;136050;1285;24218;-85
2024/01/10 01:38:23;;;;;;;101.50;31.80;;;;;;;-16.28;66.47;100668.54;136364;1285;22349;-83
2024/01/10 01:41:26;;;;;;;110.80;37.60;;;;;;;-16.28;66.99;100661.11;135805;1285;22286;-83
2024/01/10 01:44:28;;;;;;;123.50;39.10;;;;;;;-16.25;67.03;100659.29;135929;1285;22608;-85
2024/01/10 01:47:31;;;;;;;113.10;35.40;;;;;;;-16.26;66.61;100662.70;136492;1285;22338;-83
2024/01/10 01:50:33;;;;;;;114.50;34.30;;;;;;;-16.25;67.09;100660.75;135913;1285;22596;-83
2024/01/10 01:53:36;;;;;;;125.10;36.40;;;;;;;-16.20;67.26;100660.27;135739;1285;22199;-84
2024/01/10 01:56:38;;;;;;;129.40;40.20;;;;;;;-16.14;66.89;100661.41;137172;1273;22522;-85
2024/01/10 01:59:40;;;;;;;101.30;36.40;;;;;;;-16.19;66.46;100660.75;137091;1273;22196;-84
2024/01/10 02:02:43;;;;;;;142.70;41.10;;;;;;;-16.25;66.12;100659.42;136853;1273;21856;-84
2024/01/10 02:05:45;;;;;;;120.70;38.40;;;;;;;-16.28;66.03;100660.21;137091;1273;22645;-84
2024/01/10 02:08:48;;;;;;;108.30;34.10;;;;;;;-16.24;66.33;100662.52;137461;1273;21954;-84
2024/01/10 02:11:50;;;;;;;107.40;32.60;;;;;;;-16.27;66.38;100662.25;136907;1273;22788;-84
2024/01/10 02:14:53;;;;;;;111.30;34.90;;;;;;;-16.26;66.74;100663.23;136864;1273;22952;-83
2024/01/10 02:17:55;;;;;;;142.00;43.20;;;;;;;-16.23;66.96;100663.64;137417;1273;22717;-84
2024/01/10 02:20:58;;;;;;;112.80;36.50;;;;;;;-16.20;66.82;100663.75;136930;1273;22469;-82
2024/01/10 02:24:01;;;;;;;116.10;36.00;;;;;;;-16.18;66.44;100666.66;136745;1273;22199;-83
2024/01/10 02:27:03;;;;;;;130.90;37.50;;;;;;;-16.20;66.43;100666.21;137218;1273;22598;-84
2024/01/10 02:30:06;;;;;;;142.70;40.60;;;;;;;-16.20;66.80;100667.98;137122;1273;22319;-84
2024/01/10 02:33:10;;;;;;;117.40;37.70;;;;;;;-16.20;66.57;100666.64;136809;1273;22199;-83
2024/01/10 02:36:13;;;;;;;114.30;36.40;;;;;;;-16.22;66.54;100660.27;136966;1273;22585;-86
2024/01/10 02:39:15;;;;;;;112.50;34.40;;;;;;;-16.23;66.18;100661.60;137326;1273;22825;-83
2024/01/10 02:42:17;;;;;;;108.30;36.50;;;;;;;-16.25;66.38;100669.20;136649;1273;22561;-84
2024/01/10 02:45:20;;;;;;;146.20;38.90;;;;;;;-16.27;66.28;100675.98;136775;1274;22755;-84
2024/01/10 02:48:22;;;;;;;109.90;36.60;;;;;;;-16.31;66.28;100673.77;137420;1273;22286;-84
2024/01/10 02:51:25;;;;;;;114.50;35.30;;;;;;;-16.31;66.16;100669.05;136824;1273;21862;-84
2024/01/10 02:54:27;;;;;;;126.60;36.40;;;;;;;-16.34;66.01;100668.02;136866;1273;22339;-83
2024/01/10 02:57:29;;;;;;;115.60;34.40;;;;;;;-16.33;66.58;100662.92;137268;1273;22579;-84
2024/01/10 03:00:32;;;;;;;120.70;34.10;;;;;;;-16.29;66.64;100660.63;137018;1273;21871;-85
2024/01/10 03:03:34;;;;;;;102.40;32.20;;;;;;;-16.32;66.25;100651.69;136915;1273;22998;-85
2024/01/10 03:06:37;;;;;;;142.80;45.90;;;;;;;-16.34;66.06;100661.73;137060;1273;22581;-84
2024/01/10 03:09:39;;;;;;;130.20;42.70;;;;;;;-16.35;65.77;100662.02;137456;1273;22323;-84
2024/01/10 03:12:42;;;;;;;149.40;43.90;;;;;;;-16.38;65.56;100660.08;136799;1273;22718;-84
2024/01/10 03:15:44;;;;;;;121.00;37.20;;;;;;;-16.37;65.51;100656.03;136891;1274;22225;-84
2024/01/10 03:18:47;;;;;;;128.40;38.50;;;;;;;-16.42;65.45;100646.69;137516;1273;21841;-84
2024/01/10 03:21:49;;;;;;;103.50;36.80;;;;;;;-16.43;66.08;100641.92;137399;1274;22301;-84
2024/01/10 03:24:51;;;;;;;126.90;36.60;;;;;;;-16.41;66.01;100641.36;137448;1273;22218;-77
2024/01/10 03:27:54;;;;;;;138.00;44.20;;;;;;;-16.41;65.84;100634.42;137467;1273;22528;-84
2024/01/10 03:30:56;;;;;;;118.80;35.50;;;;;;;-16.45;65.52;100638.65;137380;1273;22802;-84
2024/01/10 03:33:59;;;;;;;121.30;37.90;;;;;;;-16.48;65.56;100640.60;137481;1273;22285;-84
2024/01/10 03:37:01;;;;;;;104.80;33.20;;;;;;;-16.46;65.45;100645.20;137324;1273;26226;-84
2024/01/10 03:40:04;;;;;;;117.50;34.70;;;;;;;-16.45;65.71;100638.39;137346;1274;22602;-84
2024/01/10 03:43:06;;;;;;;102.70;30.10;;;;;;;-16.45;66.39;100640.25;137379;1273;22657;-84
2024/01/10 03:46:08;;;;;;;104.50;29.40;;;;;;;-16.47;65.86;100644.02;137439;1274;22289;-80
2024/01/10 03:49:11;;;;;;;105.20;30.20;;;;;;;-16.44;66.20;100643.42;137457;1274;22704;-83
2024/01/10 03:52:13;;;;;;;132.40;40.40;;;;;;;-16.40;66.49;100641.14;137382;1273;22194;-83
2024/01/10 03:55:16;;;;;;;129.50;43.40;;;;;;;-16.39;65.36;100648.27;137454;1273;21780;-83
2024/01/10 03:58:18;;;;;;;116.10;31.40;;;;;;;-16.38;65.38;100643.08;137377;1273;22409;-84
2024/01/10 04:01:21;;;;;;;117.60;37.90;;;;;;;-16.43;65.48;100638.38;137299;1273;22750;-84
2024/01/10 04:04:23;;;;;;;101.20;35.30;;;;;;;-16.46;65.53;100639.48;137257;1273;22308;-84
2024/01/10 04:07:28;;;;;;;124.00;37.50;;;;;;;-16.47;65.67;100635.60;137445;1273;22459;-84
2024/01/10 04:10:30;;;;;;;;;;;;;;;-16.45;65.57;100638.24;137281;1274;22809;-83
2024/01/10 04:13:33;;;;;;;106.20;28.60;;;;;;;-16.45;65.43;100632.39;137322;1272;22546;-83
2024/01/10 04:16:35;;;;;;;114.00;35.50;;;;;;;-16.47;65.69;100627.29;137344;1273;22359;-84
2024/01/10 04:19:38;;;;;;;139.30;42.30;;;;;;;-16.46;65.51;100625.34;137323;1274;23094;-84
2024/01/10 04:22:40;;;;;;;143.20;42.40;;;;;;;-16.51;65.04;100626.20;137418;1273;22562;-83
2024/01/10 04:25:43;;;;;;;107.30;33.50;;;;;;;-16.57;64.96;100627.55;137386;1273;21878;-83
2024/01/10 04:28:45;;;;;;;142.50;38.20;;;;;;;-16.58;65.29;100624.56;137402;1274;22627;-83
2024/01/10 04:31:48;;;;;;;120.00;35.70;;;;;;;-16.57;65.16;100632.55;137420;1273;22223;-83
2024/01/10 04:34:51;;;;;;;105.70;34.70;;;;;;;-16.58;65.57;100622.88;137316;1274;22349;-83
2024/01/10 04:37:53;;;;;;;137.90;41.00;;;;;;;-16.59;65.26;100620.12;137239;1274;22178;-84
2024/01/10 04:40:55;;;;;;;148.80;43.10;;;;;;;-16.61;65.44;100615.95;137403;1273;22541;-81
2024/01/10 04:43:58;;;;;;;125.10;39.10;;;;;;;-16.59;65.09;100618.98;137364;1274;22355;-81
2024/01/10 04:47:00;;;;;;;119.20;36.70;;;;;;;-16.55;65.30;100624.68;137356;1274;22532;-81
2024/01/10 04:50:03;;;;;;;103.10;32.70;;;;;;;-16.53;65.63;100617.58;137262;1273;22427;-80
2024/01/10 04:53:05;;;;;;;114.10;37.80;;;;;;;-16.54;66.10;100611.81;137364;1274;22243;-81
2024/01/10 04:56:08;;;;;;;151.50;45.50;;;;;;;-16.48;66.41;100617.52;137429;1274;22361;-81
2024/01/10 04:59:10;;;;;;;114.20;36.60;;;;;;;-16.42;65.65;100620.65;137501;1273;22257;-80
2024/01/10 05:02:12;;;;;;;142.90;45.70;;;;;;;-16.44;65.77;100623.11;137470;1274;21918;-81
2024/01/10 05:05:15;;;;;;;121.40;35.40;;;;;;;-16.41;65.47;100623.51;137424;1273;22325;-81
2024/01/10 05:08:20;;;;;;;125.30;39.20;;;;;;;-16.41;65.72;100622.10;137387;1274;22374;-81
2024/01/10 05:11:22;;;;;;;;;;;;;;;-16.43;65.60;100623.74;137384;1274;23030;-82
2024/01/10 05:14:25;;;;;;;112.90;31.40;;;;;;;-16.47;65.52;100626.20;137356;1274;23013;-81
2024/01/10 05:17:27;;;;;;;112.00;35.10;;;;;;;-16.50;65.29;100627.98;137407;1274;22716;-81
2024/01/10 05:20:30;;;;;;;116.20;34.10;;;;;;;-16.52;65.92;100627.80;137404;1273;22194;-81
2024/01/10 05:23:32;;;;;;;113.20;36.80;;;;;;;-16.45;65.94;100628.56;137404;1274;22223;-81
2024/01/10 05:26:35;;;;;;;117.60;37.50;;;;;;;-16.40;66.16;100626.05;137379;1274;22320;-80
2024/01/10 05:29:37;;;;;;;111.60;34.30;;;;;;;-16.35;65.92;100626.39;137420;1273;22245;-81
2024/01/10 05:32:41;;;;;;;110.70;34.30;;;;;;;-16.41;65.67;100617.28;137385;1273;22640;-81
2024/01/10 05:35:44;;;;;;;140.90;44.40;;;;;;;-16.39;65.65;100622.91;137377;1274;22843;-80
2024/01/10 05:38:46;;;;;;;99.90;32.60;;;;;;;-16.39;65.40;100620.19;137433;1274;22469;-81
2024/01/10 05:41:50;;;;;;;110.30;33.00;;;;;;;-16.41;65.66;100612.34;137261;1274;23001;-81
2024/01/10 05:44:53;;;;;;;109.10;36.00;;;;;;;-16.39;66.02;100608.09;137390;1274;22767;-81
2024/01/10 05:47:55;;;;;;;129.40;38.10;;;;;;;-16.40;65.58;100605.10;137397;1274;22250;-80
2024/01/10 05:50:58;;;;;;;168.10;49.00;;;;;;;-16.43;65.85;100604.11;137425;1274;22666;-81
2024/01/10 05:54:00;;;;;;;167.40;45.20;;;;;;;-16.41;65.74;100602.96;137401;1274;22276;-81
2024/01/10 05:57:03;;;;;;;152.40;44.20;;;;;;;-16.42;65.41;100604.52;137381;1273;22325;-81
2024/01/10 06:00:09;;;;;;;120.70;37.80;;;;;;;-16.43;65.34;100599.98;137382;1274;22310;-81
2024/01/10 06:03:11;;;;;;;147.50;41.40;;;;;;;-16.45;65.68;100597.08;137375;1263;22265;-82
2024/01/10 06:06:14;;;;;;;137.70;42.20;;;;;;;-16.46;65.55;100589.64;137413;1274;22967;-79
2024/01/10 06:09:21;;;;;;;112.50;34.10;;;;;;;-16.44;65.88;100590.58;137419;1273;22261;-81
2024/01/10 06:12:25;;;;;;;132.60;44.40;;;;;;;-16.45;65.48;100589.58;137061;1273;21798;-79
2024/01/10 06:15:28;;;;;;;119.20;36.40;;;;;;;-16.50;65.14;100596.25;137378;1274;22241;-80
2024/01/10 06:18:30;;;;;;;115.30;39.90;;;;;;;-16.49;65.31;100598.11;137408;1274;23180;-81
2024/01/10 06:21:33;;;;;;;125.90;36.30;;;;;;;-16.46;66.04;100591.95;137374;1273;22002;-80
2024/01/10 06:24:36;;;;;;;188.20;56.00;;;;;;;-16.40;66.87;100592.00;137401;1274;22273;-81
2024/01/10 06:27:39;;;;;;;160.40;51.20;;;;;;;-16.29;66.55;100591.84;137381;1274;22285;-81
2024/01/10 06:30:41;;;;;;;155.10;50.30;;;;;;;-16.24;66.02;100596.55;137312;1275;23241;-79
2024/01/10 06:33:44;;;;;;;124.60;39.70;;;;;;;-16.20;66.08;100600.74;137366;1273;22264;-79
2024/01/10 06:36:47;;;;;;;139.20;38.40;;;;;;;-16.20;65.79;100603.61;137404;1272;22952;-79
2024/01/10 06:39:50;;;;;;;151.50;44.90;;;;;;;-16.21;65.64;100597.98;137345;1273;22529;-80
2024/01/10 06:42:52;;;;;;;129.50;40.10;;;;;;;-16.17;65.95;100599.54;137471;1275;22208;-80
2024/01/10 06:45:54;;;;;;;164.30;43.30;;;;;;;-16.14;65.96;100598.42;137513;1273;22915;-79
2024/01/10 06:48:57;;;;;;;116.40;38.20;;;;;;;-16.07;66.15;100597.16;137447;1274;21781;-80
2024/01/10 07:25:26;;;;;;;126.20;42.90;;;;;;;-15.40;65.06;100580.20;133045;1302;545057;-83
2024/01/10 07:28:30;;;;;;;145.20;47.20;;;;;;;-15.38;65.24;100588.97;136293;1287;22587;-81
2024/01/10 07:31:32;;;;;;;134.30;38.30;;;;;;;-15.30;65.53;100587.02;136282;1287;22270;-81
2024/01/10 07:34:35;;;;;;;123.10;40.90;;;;;;;-15.16;66.01;100583.36;136289;1287;22360;-82
2024/01/10 07:37:37;;;;;;;124.10;40.60;;;;;;;-15.02;66.71;100576.91;136252;1285;140669;-81
2024/01/10 07:40:40;;;;;;;173.00;56.20;;;;;;;-14.75;67.39;100572.67;136437;1285;22315;-81
2024/01/10 07:43:43;;;;;;;157.70;55.40;;;;;;;-14.51;66.48;100574.75;136447;1284;22404;-80
2024/01/10 07:46:46;;;;;;;117.40;41.10;;;;;;;-14.34;65.96;100576.02;136460;1284;22396;-81
2024/01/10 07:49:48;;;;;;;185.40;58.40;;;;;;;-14.25;65.49;100575.20;136435;1284;22783;-82
2024/01/10 07:52:50;;;;;;;129.20;42.70;;;;;;;-14.19;65.15;100570.70;136496;1285;22251;-82
2024/01/10 07:55:53;;;;;;;137.70;43.90;;;;;;;-14.05;66.08;100564.05;137076;1276;22914;-82
2024/01/10 07:58:55;;;;;;;134.70;45.50;;;;;;;-13.84;66.62;100566.08;136885;1276;22644;-79
2024/01/10 08:01:58;;;;;;;152.60;51.30;;;;;;;-13.61;66.13;100567.19;137013;1276;22770;-80
2024/01/10 08:05:01;;;;;;;150.90;52.50;;;;;;;-13.40;66.38;100566.77;136802;1276;22411;-82
2024/01/10 08:08:07;;;;;;;119.40;42.30;;;;;;;-13.20;66.00;100566.99;136778;1276;22369;-79
2024/01/10 08:11:09;;;;;;;143.10;47.50;;;;;;;-13.01;66.45;100562.13;136872;1276;22571;-79
2024/01/10 08:14:12;;;;;;;159.40;56.50;;;;;;;-12.80;66.75;100565.20;136884;1276;22741;-80
2024/01/10 08:17:14;;;;;;;198.30;65.00;;;;;;;-12.58;66.98;100565.30;137177;1276;22380;-83
2024/01/10 08:20:20;;;;;;;189.10;65.30;;;;;;;-12.33;66.93;100563.27;137038;1276;22697;-81
2024/01/10 08:23:23;;;;;;;176.10;61.00;;;;;;;-11.99;66.96;100564.57;137177;1276;23244;-79
2024/01/10 08:26:25;;;;;;;198.40;72.90;;;;;;;-11.67;66.66;100569.73;137013;1276;22371;-81
2024/01/10 08:29:31;;;;;;;173.40;61.50;;;;;;;-11.44;66.84;100567.21;137312;1276;22889;-81
2024/01/10 08:32:35;;;;;;;178.60;61.50;;;;;;;-11.18;67.07;100568.44;137322;1276;22183;-81
2024/01/10 08:35:38;;;;;;;176.00;63.40;;;;;;;-10.90;67.36;100569.55;137140;1276;22300;-81
2024/01/10 08:38:41;;;;;;;209.60;75.70;;;;;;;-10.59;67.36;100571.92;137131;1276;22449;-81
2024/01/10 08:41:44;;;;;;;198.60;73.20;;;;;;;-10.30;67.28;100567.11;137129;1276;22179;-81
2024/01/10 08:44:46;;;;;;;189.10;64.70;;;;;;;-10.03;67.45;100564.24;137082;1276;22923;-81
2024/01/10 08:47:49;;;;;;;196.90;71.30;;;;;;;-9.79;67.23;100564.90;137106;1276;22917;-80
2024/01/10 08:50:51;;;;;;;290.70;104.40;;;;;;;-9.59;67.32;100563.88;137089;1276;22866;-81
2024/01/10 08:53:54;;;;;;;229.10;83.30;;;;;;;-9.34;67.35;100569.15;137120;1276;22269;-79
2024/01/10 08:56:56;;;;;;;284.70;106.40;;;;;;;-9.11;67.34;100570.53;137134;1276;22395;-81
2024/01/10 08:59:59;;;;;;;282.00;109.00;;;;;;;-8.87;67.18;100567.13;137145;1276;22276;-81
2024/01/10 09:03:02;;;;;;;268.50;106.50;;;;;;;-8.65;67.31;100564.16;137155;1268;22298;-81
2024/01/10 09:06:05;;;;;;;278.20;104.70;;;;;;;-8.46;67.14;100564.47;137143;1276;22299;-79
2024/01/10 09:09:07;;;;;;;291.90;107.30;;;;;;;-8.31;66.62;100561.86;137090;1276;22408;-79
2024/01/10 09:12:10;;;;;;;287.50;107.80;;;;;;;-8.24;66.39;100562.54;137092;1276;22134;-79
2024/01/10 09:15:14;;;;;;;270.50;100.20;;;;;;;-8.05;66.62;100556.88;137097;1276;22252;-79
2024/01/10 09:18:16;;;;;;;304.90;114.40;;;;;;;-7.87;66.33;100556.84;137170;1276;23512;-80
2024/01/10 09:21:19;;;;;;;520.30;215.80;;;;;;;-7.67;66.35;100553.92;137148;1276;22753;-79
2024/01/10 09:24:21;;;;;;;512.80;220.40;;;;;;;-7.46;65.96;100553.44;137073;1276;22304;-79
2024/01/10 09:27:24;;;;;;;424.40;174.30;;;;;;;-7.35;65.20;100545.72;137133;1276;22289;-79
2024/01/10 09:30:26;;;;;;;496.80;205.70;;;;;;;-7.47;64.59;100547.16;137130;1276;22381;-79
2024/01/10 09:33:29;;;;;;;486.10;203.60;;;;;;;-7.47;64.70;100543.38;137127;1276;22169;-79
2024/01/10 09:36:31;;;;;;;470.40;196.20;;;;;;;-7.44;64.85;100540.01;137208;1276;22470;-80
2024/01/10 09:39:34;;;;;;;518.50;216.10;;;;;;;-7.43;64.72;100536.91;137216;1276;22237;-79
2024/01/10 09:42:37;;;;;;;531.20;230.30;;;;;;;-7.26;65.45;100537.23;136700;1276;22578;-79
2024/01/10 09:45:40;;;;;;;512.70;227.10;;;;;;;-6.99;65.66;100532.46;136832;1276;22218;-79
2024/01/10 09:48:42;;;;;;;266.60;110.90;;;;;;;-6.76;65.73;100531.47;137197;1276;22414;-80
2024/01/10 09:51:45;;;;;;;163.40;69.10;;;;;;;-6.57;65.22;100528.27;137161;1276;22431;-80
2024/01/10 09:54:48;;;;;;;139.50;58.10;;;;;;;-6.55;63.71;100532.83;137224;1276;22670;-80
2024/01/10 09:57:50;;;;;;;133.20;55.30;;;;;;;-6.54;63.77;100523.15;137178;1276;22344;-79
2024/01/10 10:00:52;;;;;;;129.00;54.60;;;;;;;-6.45;64.11;100518.35;136066;1269;22582;-79
2024/01/10 10:03:55;;;;;;;140.60;56.10;;;;;;;-6.30;64.42;100515.09;137029;1276;22607;-79
2024/01/10 10:06:57;;;;;;;149.00;63.00;;;;;;;-6.11;64.66;100509.46;135849;1276;22240;-79
2024/01/10 10:10:00;;;;;;;144.60;61.00;;;;;;;-5.88;64.77;100513.11;136565;1276;22572;-78
2024/01/10 10:13:07;;;;;;;143.80;60.10;;;;;;;-5.63;63.87;100518.77;137101;1264;22676;-79
2024/01/10 10:16:12;;;;;;;143.30;57.20;;;;;;;-5.38;63.24;100521.66;137111;1273;22352;-81
2024/01/10 10:19:14;;;;;;;163.00;67.00;;;;;;;-5.20;62.68;100522.83;137098;1273;22564;-80
2024/01/10 10:22:17;;;;;;;220.20;90.70;;;;;;;-5.04;62.62;100521.99;136936;1273;22540;-80
2024/01/10 10:25:19;;;;;;;319.00;128.70;;;;;;;-5.01;62.27;100520.80;137406;1273;22168;-79
2024/01/10 10:28:22;;;;;;;305.60;125.60;;;;;;;-5.06;61.86;100521.36;137451;1273;22316;-79
2024/01/10 10:31:25;;;;;;;229.50;96.80;;;;;;;-5.04;61.95;100521.70;137424;1273;22354;-81
2024/01/10 10:34:27;;;;;;;229.20;93.80;;;;;;;-5.06;61.37;100520.47;137438;1273;22191;-80
2024/01/10 10:37:30;;;;;;;219.90;89.60;;;;;;;-5.01;61.63;100518.95;137388;1262;22244;-79
2024/01/10 10:40:32;;;;;;;216.80;87.50;;;;;;;-4.86;61.16;100522.34;137359;1273;22350;-80
2024/01/10 10:43:35;;;;;;;233.10;89.80;;;;;;;-4.78;60.46;100516.63;137360;1273;22230;-79
2024/01/10 10:46:38;;;;;;;202.00;84.90;;;;;;;-4.75;60.22;100511.46;137340;1268;22226;-79
2024/01/10 10:49:40;;;;;;;175.40;75.40;;;;;;;-4.75;60.03;100504.70;137363;1273;22414;-78
2024/01/10 10:52:43;;;;;;;191.30;78.80;;;;;;;-4.80;59.51;100503.73;137395;1273;22223;-78
2024/01/10 10:55:46;;;;;;;203.80;82.20;;;;;;;-4.79;59.92;100501.61;137379;1273;22304;-78
2024/01/10 10:58:48;;;;;;;208.30;83.60;;;;;;;-4.64;60.29;100499.14;137406;1273;22277;-78
2024/01/10 11:01:51;;;;;;;197.40;79.20;;;;;;;-4.45;59.90;100496.40;137091;1273;22236;-79
2024/01/10 11:04:53;;;;;;;168.60;69.60;;;;;;;-4.39;58.97;100489.75;137429;1273;22819;-79
2024/01/10 11:07:56;;;;;;;176.30;75.40;;;;;;;-4.26;58.97;100481.79;137393;1273;22244;-80
2024/01/10 11:10:59;;;;;;;164.00;68.20;;;;;;;-4.18;58.79;100478.91;137416;1273;22204;-80
2024/01/10 11:14:01;;;;;;;176.30;75.00;;;;;;;-4.12;58.70;100477.39;137370;1273;22095;-79
2024/01/10 11:17:04;;;;;;;175.40;74.90;;;;;;;-4.01;58.91;100475.89;137413;1273;22248;-80
2024/01/10 11:20:09;;;;;;;178.90;71.80;;;;;;;-3.84;59.10;100473.41;137427;1273;22194;-79
2024/01/10 11:23:12;;;;;;;186.20;73.20;;;;;;;-3.70;58.58;100464.66;137419;1273;22279;-79
2024/01/10 11:26:14;;;;;;;193.40;78.80;;;;;;;-3.58;58.48;100465.10;137378;1273;22324;-78
2024/01/10 11:29:17;;;;;;;184.00;78.30;;;;;;;-3.50;57.94;100461.45;137440;1273;22244;-78
2024/01/10 11:32:19;;;;;;;185.90;80.20;;;;;;;-3.38;58.01;100458.80;137408;1273;22200;-79
2024/01/10 11:35:22;;;;;;;211.20;81.90;;;;;;;-3.25;58.13;100462.77;137351;1273;22077;-78
2024/01/10 11:38:24;;;;;;;215.70;84.70;;;;;;;-3.14;57.93;100458.33;137387;1273;22285;-79
2024/01/10 11:41:27;;;;;;;196.60;81.40;;;;;;;-3.07;57.55;100452.45;137435;1273;22655;-77
2024/01/10 11:44:29;;;;;;;186.40;78.20;;;;;;;-3.02;56.90;100455.45;137308;1273;22098;-79
2024/01/10 11:47:32;;;;;;;155.80;69.30;;;;;;;-3.00;56.55;100448.90;137377;1273;22219;-79
2024/01/10 11:50:34;;;;;;;180.00;71.90;;;;;;;-3.04;56.50;100441.16;137379;1273;22237;-79
2024/01/10 11:53:39;;;;;;;162.60;67.40;;;;;;;-3.04;56.71;100438.58;137400;1273;23095;-78
2024/01/10 11:56:44;;;;;;;161.40;66.20;;;;;;;-3.06;56.26;100438.98;137391;1273;22210;-79
2024/01/10 11:59:46;;;;;;;162.30;67.70;;;;;;;-3.07;55.94;100437.51;137418;1273;22352;-81
2024/01/10 12:02:48;;;;;;;155.50;66.20;;;;;;;-3.01;55.90;100433.25;137216;1265;22282;-80
2024/01/10 12:05:51;;;;;;;180.60;76.70;;;;;;;-3.00;56.06;100431.63;136660;1273;24232;-80
2024/01/10 12:08:53;;;;;;;180.70;77.00;;;;;;;-2.96;56.14;100424.85;136974;1273;22271;-78
2024/01/10 12:11:56;;;;;;;184.30;74.90;;;;;;;-2.92;56.22;100415.19;136802;1273;22563;-78
2024/01/10 12:14:58;;;;;;;179.00;75.90;;;;;;;-2.84;56.29;100408.75;137434;1273;22133;-77
2024/01/10 12:18:01;;;;;;;167.90;75.00;;;;;;;-2.76;56.19;100400.95;137471;1273;22291;-78
2024/01/10 12:21:04;;;;;;;197.00;82.60;;;;;;;-2.70;56.12;100397.06;137465;1273;22185;-78
2024/01/10 12:24:07;;;;;;;193.30;89.10;;;;;;;-2.63;56.20;100395.08;137430;1273;22221;-79
2024/01/10 12:27:09;;;;;;;216.60;98.10;;;;;;;-2.59;56.31;100395.78;137436;1273;22214;-78
2024/01/10 12:30:12;;;;;;;212.50;92.10;;;;;;;-2.52;56.70;100389.64;137390;1273;23092;-77
2024/01/10 12:33:14;;;;;;;214.70;94.30;;;;;;;-2.38;56.58;100383.65;137431;1273;22239;-78
2024/01/10 12:36:17;;;;;;;222.00;97.00;;;;;;;-2.31;56.16;100382.06;137296;1273;22173;-77
2024/01/10 12:39:19;;;;;;;219.50;98.50;;;;;;;-2.27;56.36;100382.91;137388;1273;22455;-79
2024/01/10 12:42:22;;;;;;;224.50;98.00;;;;;;;-2.25;56.63;100382.80;137396;1273;22740;-77
2024/01/10 12:45:24;;;;;;;243.50;101.60;;;;;;;-2.19;56.48;100382.45;137380;1265;22312;-76
2024/01/10 12:48:26;;;;;;;197.30;86.40;;;;;;;-2.13;56.44;100383.77;137349;1273;22330;-77
2024/01/10 12:51:30;;;;;;;241.20;103.70;;;;;;;-2.02;56.87;100380.48;137396;1273;22256;-77
2024/01/10 12:54:32;;;;;;;222.70;96.90;;;;;;;-1.97;56.53;100381.94;137408;1256;22265;-76
2024/01/10 12:57:35;;;;;;;231.60;97.70;;;;;;;-1.98;56.60;100379.95;137316;1273;22253;-76
2024/01/10 13:00:39;;;;;;;246.30;103.80;;;;;;;-2.03;55.97;100380.45;137387;1273;22227;-76
2024/01/10 13:03:42;;;;;;;277.40;119.90;;;;;;;-2.10;55.83;100379.33;137341;1259;22743;-76
2024/01/10 13:06:45;;;;;;;258.20;106.90;;;;;;;-2.14;55.33;100379.60;137333;1273;22090;-76
2024/01/10 13:09:47;;;;;;;262.60;110.80;;;;;;;-2.18;55.53;100377.41;137299;1273;22580;-77
2024/01/10 13:12:50;;;;;;;323.40;125.30;;;;;;;-2.23;55.72;100370.34;137377;1273;22239;-77
2024/01/10 13:15:52;;;;;;;327.30;131.90;;;;;;;-2.24;56.16;100369.16;137337;1273;22225;-77
2024/01/10 13:18:57;;;;;;;262.20;105.60;;;;;;;-2.25;56.08;100367.45;137282;1273;22749;-77
2024/01/10 13:21:59;;;;;;;315.40;120.80;;;;;;;-2.25;56.93;100363.84;137307;1273;22251;-77
2024/01/10 13:25:03;;;;;;;150.10;63.90;;;;;;;-2.24;56.95;100358.44;137313;1273;22402;-80
2024/01/10 13:28:06;;;;;;;134.60;57.40;;;;;;;-2.20;56.83;100364.47;137264;1273;22246;-79
2024/01/10 13:31:09;;;;;;;123.60;54.30;;;;;;;-2.21;56.82;100363.27;137333;1273;22404;-78
2024/01/10 13:34:12;;;;;;;123.20;52.70;;;;;;;-2.24;56.59;100362.23;137316;1273;23036;-79
2024/01/10 13:37:14;;;;;;;119.20;53.00;;;;;;;-2.26;56.50;100359.01;137306;1273;22123;-78
2024/01/10 13:40:16;;;;;;;111.60;50.00;;;;;;;-2.22;56.65;100357.63;137305;1273;22183;-76
2024/01/10 13:43:19;;;;;;;124.40;56.00;;;;;;;-2.20;56.62;100357.13;137339;1273;22347;-77
2024/01/10 13:46:21;;;;;;;124.00;55.30;;;;;;;-2.14;57.12;100352.48;137370;1273;22157;-77
2024/01/10 13:49:27;;;;;;;128.80;58.30;;;;;;;-2.09;57.13;100350.70;137366;1273;22326;-77
2024/01/10 13:52:29;;;;;;;140.10;60.70;;;;;;;-2.08;57.55;100348.45;137354;1273;22230;-77
2024/01/10 13:55:32;;;;;;;129.50;58.30;;;;;;;-2.06;57.77;100349.95;137347;1273;22278;-79
2024/01/10 13:58:34;;;;;;;131.00;59.10;;;;;;;-2.10;57.50;100343.63;137342;1273;22313;-78